北海道METAR電文


稚内(RJCW)
07/20 18:00
METAR RJCW 200900Z 19015KT 9999 SCT011 24/21 Q1005 RMK 4ST011 A2968=

利尻(RJER)
07/20 16:00
RJER 200700Z 22023KT 9999 SCT010 24/21 Q1004 RMK A2966=

紋別(RJEB)
07/20 16:00
METAR RJEB 200700Z 11009KT 9999 FEW030 25/21 Q1005 RMK 1CU030 A2970=

女満別(RJCM)
07/20 20:00
METAR RJCM 201100Z VRB01KT 9999 FEW020 SCT100 24/21 Q1007 RMK 1CU020
3AC100 A2974=

中標津(RJCN)
07/20 18:00
METAR RJCN 200900Z 19006KT 8000 FEW007 SCT/// 25/23 Q1006 RMK 1ST007
A2972=

釧路(RJCK)
07/21 06:00
METAR RJCK 202100Z AUTO 03004KT 0100 R17/0200N FG OVC000 20/20 Q1008
RMK A2977=

十勝(RJCT)
07/21 06:00
METAR RJCT 202100Z NIL=

帯広(RJCB)
07/20 20:00
METAR RJCB 201100Z 11003KT 060V140 9999 FEW030 24/22 Q1007 RMK
1CU030 A2975=

旭川M(RJCA)
07/21 06:00
METAR RJCA 202100Z NIL=

旭川C(RJEC)
07/21 06:00
METAR RJEC 202100Z AUTO 17006KT 9999 NCD 21/19 Q1008 RMK A2979=

丘珠(RJCO)
07/21 06:00
METAR RJCO 202100Z NIL=

新千歳(RJCC)
07/21 06:20
RJCC 202120Z 16004KT 4000 BR FEW001 SCT002 BKN010 22/22 Q1008
RMK 1ST001 3ST002 6ST010 A2978=

千歳(RJCJ)
07/21 06:00
METAR RJCJ 202100Z 17006KT 2500 BR FEW001 BKN003 BKN005 22/22 Q1008
RMK 2ST001 5ST003 5ST005 A2979 VIS E-SE 5KM 31/21=

奥尻(RJEO)
07/20 14:00
RJEO 200500Z 18005KT 9000 FEW007 SCT010 BKN012 24/22 Q1008 RMK
A2977=

函館(RJCH)
07/21 06:00
METAR RJCH 202100Z AUTO 29004KT 9999 BKN028 24/21 Q1009 RMK A2980=
Copyright(c) 2014 International Meteorological & Oceanographic Consultants Co,.Ltd. All Rights Reserved. Design by http://f-tpl.com